Time;durP1;ratioP1;P1;durP2;ratioP2;P2;SDS_P1;SDS_P2;PMS_P1;PMS_P2;Temp;Humidity;BMP_temperature;BMP_pressure;BME280_temperature;BME280_humidity;BME280_pressure;Samples;Min_cycle;Max_cycle;Signal;HPM_P1;HPM_P2
2022/01/02 00:00:05;;;;;;;8.68;4.25;;;9.30;99.90;;;;;;4839120;29;20046;-86
2022/01/02 00:02:36;;;;;;;11.13;5.03;;;9.30;99.90;;;;;;4838389;29;20073;-87
2022/01/02 00:05:09;;;;;;;11.63;4.78;;;9.30;99.90;;;;;;4840883;29;20089;-88
2022/01/02 00:07:53;;;;;;;6.78;4.07;;;9.20;99.90;;;;;;4842620;29;20149;-88
2022/01/02 00:13:23;;;;;;;8.48;3.60;;;9.30;99.90;;;;;;4837760;29;20088;-87
2022/01/02 00:15:56;;;;;;;9.13;4.17;;;9.20;99.90;;;;;;4844013;29;20177;-88
2022/01/02 00:18:28;;;;;;;8.00;2.90;;;9.10;99.90;;;;;;4860838;29;20065;-89
2022/01/02 00:21:00;;;;;;;7.50;3.50;;;9.10;99.90;;;;;;4857349;29;20060;-88
2022/01/02 00:23:40;;;;;;;6.88;3.63;;;9.10;99.90;;;;;;4874721;29;20049;-88
2022/01/02 00:26:17;;;;;;;8.88;3.70;;;9.10;99.90;;;;;;4843049;29;20121;-88
2022/01/02 00:28:48;;;;;;;8.80;3.30;;;9.00;99.90;;;;;;4855426;29;20046;-88
2022/01/02 00:31:18;;;;;;;7.47;3.42;;;9.00;99.90;;;;;;4860735;29;20444;-88
2022/01/02 00:33:49;;;;;;;6.85;3.08;;;9.00;99.90;;;;;;4860086;29;20056;-88
2022/01/02 00:36:18;;;;;;;6.70;2.78;;;9.00;99.90;;;;;;4844893;29;20153;-87
2022/01/02 00:38:49;;;;;;;9.02;3.63;;;9.00;99.90;;;;;;4860429;29;20049;-88
2022/01/02 00:41:26;;;;;;;8.13;3.40;;;9.00;99.90;;;;;;4867660;29;20088;-86
2022/01/02 00:44:02;;;;;;;6.38;2.83;;;9.00;99.90;;;;;;4850282;29;20076;-86
2022/01/02 00:46:35;;;;;;;8.10;2.75;;;9.00;99.90;;;;;;4859700;29;20053;-88
2022/01/02 00:49:05;;;;;;;7.07;3.17;;;9.00;99.90;;;;;;4853156;29;20041;-88
2022/01/02 00:51:46;;;;;;;6.38;3.20;;;8.80;99.90;;;;;;4845203;29;20063;-87
2022/01/02 00:54:17;;;;;;;6.67;3.00;;;8.90;99.90;;;;;;4858566;29;20052;-87
2022/01/02 00:56:50;;;;;;;6.93;2.58;;;9.00;99.90;;;;;;4858597;29;20049;-89
2022/01/02 00:59:28;;;;;;;8.18;3.60;;;9.10;99.90;;;;;;4858859;29;20090;-87
2022/01/02 01:02:03;;;;;;;9.60;3.33;;;9.10;99.90;;;;;;4859180;29;20131;-88
2022/01/02 01:04:34;;;;;;;8.00;3.10;;;8.90;99.90;;;;;;4860040;29;20760;-88
2022/01/02 01:07:05;;;;;;;7.50;2.53;;;8.90;99.90;;;;;;4859594;29;20045;-87
2022/01/02 01:09:41;;;;;;;7.45;3.00;;;8.90;99.90;;;;;;4872434;29;20046;-87
2022/01/02 01:12:11;;;;;;;6.28;2.83;;;9.00;99.90;;;;;;4843819;29;20093;-87
2022/01/02 01:14:40;;;;;;;8.48;2.72;;;8.90;99.90;;;;;;4844064;29;20065;-88
2022/01/02 01:17:13;;;;;;;7.00;2.95;;;9.00;99.90;;;;;;4882466;29;20091;-87
2022/01/02 01:19:43;;;;;;;6.20;2.23;;;9.00;99.90;;;;;;4856718;29;20497;-88
2022/01/02 01:22:15;;;;;;;12.10;3.13;;;9.00;99.90;;;;;;4862624;29;20084;-88
2022/01/02 01:24:47;;;;;;;7.13;2.80;;;9.00;99.90;;;;;;4848459;29;20057;-88
2022/01/02 01:27:17;;;;;;;6.60;2.60;;;8.90;99.90;;;;;;4845826;29;20118;-88
2022/01/02 01:29:46;;;;;;;7.47;2.80;;;9.00;99.90;;;;;;4861367;29;20101;-88
2022/01/02 01:32:17;;;;;;;7.10;2.53;;;8.90;99.90;;;;;;4861855;29;20132;-88
2022/01/02 01:34:46;;;;;;;7.35;3.10;;;8.90;99.90;;;;;;4851321;29;20053;-87
2022/01/02 01:37:18;;;;;;;9.43;3.58;;;8.90;99.90;;;;;;4841845;29;20077;-87
2022/01/02 01:39:48;;;;;;;7.88;2.42;;;9.00;99.90;;;;;;4865171;29;20057;-88
2022/01/02 01:42:27;;;;;;;7.75;3.53;;;9.00;99.90;;;;;;4864230;29;20521;-88
2022/01/02 01:47:52;;;;;;;6.88;2.60;;;9.10;99.90;;;;;;4846799;29;20056;-88
2022/01/02 01:50:22;;;;;;;6.20;2.90;;;9.00;99.90;;;;;;4856350;29;20064;-88
2022/01/02 01:52:53;;;;;;;4.78;3.08;;;9.00;99.90;;;;;;4876320;29;20835;-88
2022/01/02 01:55:24;;;;;;;4.70;2.53;;;9.00;99.90;;;;;;4853839;29;20420;-88
2022/01/02 02:00:47;;;;;;;6.90;3.05;;;8.90;99.90;;;;;;4846985;29;20105;-88
2022/01/02 02:03:37;;;;;;;7.28;3.03;;;8.90;99.90;;;;;;4860684;29;20060;-87
2022/01/02 02:09:04;;;;;;;5.72;2.58;;;8.80;99.90;;;;;;4854945;29;20061;-88
2022/01/02 02:11:37;;;;;;;7.33;2.67;;;8.70;99.90;;;;;;4843722;29;20057;-88
2022/01/02 02:14:07;;;;;;;6.80;2.90;;;8.70;99.90;;;;;;4877019;29;20136;-88
2022/01/02 02:16:37;;;;;;;6.03;2.63;;;8.70;99.90;;;;;;4856773;29;20046;-87
2022/01/02 02:19:11;;;;;;;8.35;3.20;;;8.60;99.90;;;;;;4856710;29;20049;-88
2022/01/02 02:21:42;;;;;;;6.53;2.97;;;8.60;99.90;;;;;;4874787;29;20520;-87
2022/01/02 02:24:14;;;;;;;5.10;2.23;;;8.60;99.90;;;;;;4845264;29;20132;-88
2022/01/02 02:26:47;;;;;;;6.18;2.08;;;8.60;99.90;;;;;;4877642;29;20056;-88
2022/01/02 02:29:16;;;;;;;7.93;2.45;;;8.70;99.90;;;;;;4858888;29;20520;-88
2022/01/02 02:31:45;;;;;;;6.30;2.70;;;8.70;99.90;;;;;;4859987;29;20050;-88
2022/01/02 02:34:15;;;;;;;5.35;2.78;;;8.60;99.90;;;;;;4857532;29;20057;-88
2022/01/02 02:36:45;;;;;;;7.17;3.27;;;8.70;99.90;;;;;;4878300;29;20097;-88
2022/01/02 02:39:14;;;;;;;6.20;2.97;;;8.80;99.90;;;;;;4843910;29;20082;-88
2022/01/02 02:41:44;;;;;;;8.70;3.00;;;8.80;99.90;;;;;;4875588;29;20049;-88
2022/01/02 02:44:22;;;;;;;6.22;2.40;;;8.80;99.90;;;;;;4857440;29;20391;-89
2022/01/02 02:49:40;;;;;;;6.87;2.90;;;8.70;99.90;;;;;;4861418;29;20056;-88
2022/01/02 02:52:19;;;;;;;7.60;2.80;;;8.60;99.90;;;;;;4860385;29;20531;-88
2022/01/02 02:54:49;;;;;;;6.53;2.63;;;8.60;99.90;;;;;;4848242;29;20063;-88
2022/01/02 02:57:19;;;;;;;6.80;3.03;;;8.60;99.90;;;;;;4863058;29;20127;-87
2022/01/02 02:59:48;;;;;;;6.10;3.00;;;8.50;99.90;;;;;;4870669;29;20089;-88
2022/01/02 03:02:17;;;;;;;8.43;2.40;;;8.60;99.90;;;;;;4855707;29;20088;-88
2022/01/02 03:04:47;;;;;;;7.90;3.38;;;8.70;99.90;;;;;;4856357;29;20061;-88
2022/01/02 03:07:18;;;;;;;6.18;2.75;;;8.70;99.90;;;;;;4847735;29;20072;-88
2022/01/02 03:09:51;;;;;;;5.38;2.50;;;8.60;99.90;;;;;;4873168;29;20073;-88
2022/01/02 03:12:22;;;;;;;5.68;3.13;;;8.60;99.90;;;;;;4846066;29;20477;-88
2022/01/02 03:14:53;;;;;;;5.17;2.60;;;8.60;99.90;;;;;;4856557;29;20109;-88
2022/01/02 03:17:22;;;;;;;7.90;3.35;;;8.60;99.90;;;;;;4872640;29;20145;-87
2022/01/02 03:19:51;;;;;;;5.00;2.60;;;8.60;99.90;;;;;;4856448;29;20417;-88
2022/01/02 03:22:23;;;;;;;5.32;2.60;;;8.60;99.90;;;;;;4849012;29;20117;-87
2022/01/02 03:24:52;;;;;;;5.18;2.53;;;8.50;99.90;;;;;;4852095;29;20674;-89
2022/01/02 03:27:22;;;;;;;6.10;2.67;;;8.50;99.90;;;;;;4857789;29;20734;-88
2022/01/02 03:29:51;;;;;;;5.78;2.28;;;8.50;99.90;;;;;;4854423;29;20050;-88
2022/01/02 03:32:20;;;;;;;6.22;2.63;;;8.50;99.90;;;;;;4839676;29;20145;-87
2022/01/02 03:34:49;;;;;;;5.88;2.55;;;8.60;99.90;;;;;;4843600;29;20112;-88
2022/01/02 03:37:18;;;;;;;7.78;3.72;;;8.50;99.90;;;;;;4835451;29;20049;-88
2022/01/02 03:39:50;;;;;;;5.73;2.70;;;8.40;99.90;;;;;;4840012;29;20065;-89
2022/01/02 03:42:18;;;;;;;6.75;2.65;;;8.40;99.90;;;;;;4842896;29;20505;-88
2022/01/02 03:44:47;;;;;;;6.07;2.63;;;8.40;99.90;;;;;;4872339;29;20045;-87
2022/01/02 03:47:16;;;;;;;5.68;2.80;;;8.40;99.90;;;;;;4838117;29;20042;-88
2022/01/02 03:49:45;;;;;;;7.45;2.55;;;8.40;99.90;;;;;;4843191;29;20535;-89
2022/01/02 03:52:15;;;;;;;7.00;2.83;;;8.40;99.90;;;;;;4844531;29;20136;-87
2022/01/02 03:54:43;;;;;;;6.72;2.75;;;8.40;99.90;;;;;;4871152;29;20137;-88
2022/01/02 03:57:14;;;;;;;6.88;2.95;;;8.40;99.90;;;;;;4850144;29;20057;-88
2022/01/02 03:59:44;;;;;;;5.47;2.40;;;8.30;99.90;;;;;;4840832;29;20444;-88
2022/01/02 04:02:12;;;;;;;4.88;2.20;;;8.40;99.90;;;;;;4860266;29;20049;-87
2022/01/02 04:04:42;;;;;;;7.07;3.00;;;8.30;99.90;;;;;;4856523;29;20060;-87
2022/01/02 04:07:11;;;;;;;5.60;2.40;;;8.10;99.90;;;;;;4845526;29;20520;-88
2022/01/02 04:09:41;;;;;;;9.82;3.47;;;8.10;99.90;;;;;;4870940;29;20105;-88
2022/01/02 04:12:09;;;;;;;7.95;3.20;;;8.10;99.90;;;;;;4835666;29;20042;-88
2022/01/02 04:14:39;;;;;;;9.73;3.03;;;8.20;99.90;;;;;;4840481;29;20053;-88
2022/01/02 04:17:08;;;;;;;5.57;2.63;;;8.20;99.90;;;;;;4859524;29;20136;-88
2022/01/02 04:19:36;;;;;;;6.05;2.67;;;8.10;99.90;;;;;;4838090;29;20081;-88
2022/01/02 04:22:08;;;;;;;9.20;2.53;;;8.00;99.90;;;;;;4868914;29;20081;-88
2022/01/02 04:24:37;;;;;;;6.03;2.80;;;8.00;99.90;;;;;;4841845;29;20049;-88
2022/01/02 04:27:06;;;;;;;6.43;2.65;;;8.10;99.90;;;;;;4875041;29;20065;-88
2022/01/02 04:29:34;;;;;;;8.57;2.53;;;8.00;99.90;;;;;;4841161;29;20085;-88
2022/01/02 04:32:05;;;;;;;7.18;2.17;;;8.10;99.90;;;;;;4853330;29;20557;-88
2022/01/02 04:34:34;;;;;;;4.90;2.22;;;8.00;99.90;;;;;;4840177;29;20052;-88
2022/01/02 04:37:04;;;;;;;13.02;2.80;;;8.10;99.90;;;;;;4871918;29;20049;-88
2022/01/02 04:39:35;;;;;;;7.25;2.60;;;8.20;99.90;;;;;;4843299;29;20158;-88
2022/01/02 04:42:04;;;;;;;5.20;2.37;;;8.20;99.90;;;;;;4854798;29;20140;-88
2022/01/02 04:44:33;;;;;;;8.85;2.85;;;8.20;99.90;;;;;;4868372;29;20057;-88
2022/01/02 04:47:03;;;;;;;7.53;3.42;;;8.20;99.90;;;;;;4855623;29;20053;-88
2022/01/02 04:49:33;;;;;;;7.80;2.90;;;8.20;99.90;;;;;;4856748;29;20585;-89
2022/01/02 04:52:02;;;;;;;10.35;3.08;;;8.20;99.90;;;;;;4843790;29;20050;-88
2022/01/02 04:54:31;;;;;;;5.53;2.70;;;8.20;99.90;;;;;;4844267;29;20046;-88
2022/01/02 04:57:00;;;;;;;8.05;2.53;;;8.20;99.90;;;;;;4844305;29;20446;-88
2022/01/02 04:59:29;;;;;;;6.97;2.25;;;8.30;99.90;;;;;;4870132;29;20056;-88
2022/01/02 05:01:58;;;;;;;7.72;2.75;;;8.30;99.90;;;;;;4858927;29;20072;-88
2022/01/02 05:04:29;;;;;;;4.65;2.38;;;8.20;99.90;;;;;;4854286;29;20126;-88
2022/01/02 05:06:59;;;;;;;5.00;2.20;;;8.20;99.90;;;;;;4860391;29;20049;-88
2022/01/02 05:09:28;;;;;;;9.05;3.42;;;8.20;99.90;;;;;;4869267;29;20037;-89
2022/01/02 05:11:58;;;;;;;9.75;3.35;;;8.20;99.90;;;;;;4869222;29;20050;-88
2022/01/02 05:14:27;;;;;;;6.45;2.90;;;8.20;99.90;;;;;;4855762;29;20136;-88
2022/01/02 05:16:55;;;;;;;5.25;2.70;;;8.10;99.90;;;;;;4839348;29;20053;-88
2022/01/02 05:19:28;;;;;;;5.37;2.57;;;8.10;99.90;;;;;;4854884;29;20442;-88
2022/01/02 05:21:57;;;;;;;6.30;3.03;;;8.10;99.90;;;;;;4869732;29;20064;-88
2022/01/02 05:24:26;;;;;;;8.77;2.85;;;8.10;99.90;;;;;;4859774;29;20112;-88
2022/01/02 05:26:55;;;;;;;6.93;2.55;;;8.20;99.90;;;;;;4845644;29;20053;-88
2022/01/02 05:29:24;;;;;;;7.70;2.60;;;8.20;99.90;;;;;;4855236;29;20060;-88
2022/01/02 05:31:55;;;;;;;6.27;2.83;;;8.10;99.90;;;;;;4834195;29;20046;-88
2022/01/02 05:34:23;;;;;;;5.32;2.70;;;8.00;99.90;;;;;;4858570;29;20462;-88
2022/01/02 05:36:53;;;;;;;5.70;2.85;;;7.90;99.90;;;;;;4853754;29;20450;-88
2022/01/02 05:39:24;;;;;;;11.27;2.80;;;8.10;99.90;;;;;;4841609;29;20104;-88
2022/01/02 05:41:55;;;;;;;5.85;2.30;;;8.00;99.90;;;;;;4850229;29;20137;-88
2022/01/02 05:44:25;;;;;;;7.80;3.50;;;7.90;99.90;;;;;;4855218;29;20079;-88
2022/01/02 05:46:53;;;;;;;7.78;3.88;;;7.90;99.90;;;;;;4846101;29;20600;-88
2022/01/02 05:49:48;;;;;;;4.82;2.25;;;8.00;99.90;;;;;;4858954;29;20179;-88
2022/01/02 05:52:19;;;;;;;5.22;2.30;;;7.90;99.90;;;;;;4858910;29;20053;-88
2022/01/02 05:54:48;;;;;;;8.52;3.33;;;8.00;99.90;;;;;;4858289;29;20077;-88
2022/01/02 05:57:17;;;;;;;9.20;3.03;;;8.00;99.90;;;;;;4844837;29;20063;-87
2022/01/02 05:59:47;;;;;;;4.78;2.38;;;8.00;99.90;;;;;;4860087;29;20049;-88
2022/01/02 06:02:16;;;;;;;5.95;2.75;;;7.90;99.90;;;;;;4853041;29;20062;-88
2022/01/02 06:04:44;;;;;;;7.35;3.08;;;7.90;99.90;;;;;;4858287;29;20073;-88
2022/01/02 06:07:15;;;;;;;7.70;3.42;;;8.00;99.90;;;;;;4850959;29;20076;-88
2022/01/02 06:09:45;;;;;;;6.10;2.93;;;8.00;99.90;;;;;;4844594;29;20462;-88
2022/01/02 06:12:14;;;;;;;6.07;2.50;;;8.00;99.90;;;;;;4853048;29;20152;-88
2022/01/02 06:14:43;;;;;;;5.35;2.50;;;8.00;99.90;;;;;;4840818;29;20062;-88
2022/01/02 06:17:12;;;;;;;6.85;2.70;;;8.00;99.90;;;;;;4857034;29;20054;-87
2022/01/02 06:19:41;;;;;;;5.90;2.55;;;7.90;99.90;;;;;;4851035;29;20166;-87
2022/01/02 06:25:30;;;;;;;7.50;2.90;;;7.90;99.90;;;;;;4858997;29;20068;-88
2022/01/02 06:28:01;;;;;;;9.90;3.38;;;7.80;99.90;;;;;;4847716;29;20056;-87
2022/01/02 06:30:30;;;;;;;6.18;2.45;;;7.80;99.90;;;;;;4852538;29;20045;-87
2022/01/02 06:32:59;;;;;;;7.05;2.80;;;7.80;99.90;;;;;;4845073;29;20053;-88
2022/01/02 06:35:30;;;;;;;6.33;2.63;;;7.80;99.90;;;;;;4851461;29;20049;-88
2022/01/02 06:37:58;;;;;;;9.93;3.75;;;7.90;99.90;;;;;;4844878;29;20057;-87
2022/01/02 06:40:29;;;;;;;6.15;2.35;;;7.90;99.90;;;;;;4868116;29;20045;-87
2022/01/02 06:42:58;;;;;;;6.70;3.15;;;8.00;99.90;;;;;;4854710;29;20163;-88
2022/01/02 06:45:26;;;;;;;6.75;3.03;;;8.00;99.90;;;;;;4838845;29;20056;-88
2022/01/02 06:47:55;;;;;;;11.00;3.30;;;8.00;99.90;;;;;;4863960;29;20417;-89
2022/01/02 06:50:24;;;;;;;7.00;3.20;;;8.10;99.90;;;;;;4857870;29;20389;-89
2022/01/02 06:52:53;;;;;;;9.30;3.75;;;8.10;99.90;;;;;;4845923;29;20084;-88
2022/01/02 06:55:22;;;;;;;9.85;3.40;;;8.10;99.90;;;;;;4872739;29;20486;-88
2022/01/02 06:57:53;;;;;;;7.35;3.28;;;8.20;99.90;;;;;;4845698;29;20113;-86
2022/01/02 07:00:47;;;;;;;8.33;3.27;;;8.20;99.90;;;;;;4857753;29;20057;-88
2022/01/02 07:03:16;;;;;;;9.70;3.28;;;8.10;99.90;;;;;;4859003;29;20168;-89
2022/01/02 07:05:44;;;;;;;7.60;2.80;;;8.10;99.90;;;;;;4863828;29;20124;-86
2022/01/02 07:08:13;;;;;;;8.10;2.63;;;8.10;99.90;;;;;;4859862;29;20520;-88
2022/01/02 07:10:43;;;;;;;6.25;2.55;;;8.20;99.90;;;;;;4860767;29;20208;-86
2022/01/02 07:13:13;;;;;;;8.40;2.90;;;8.20;99.90;;;;;;4860038;29;20579;-87
2022/01/02 07:15:41;;;;;;;9.43;3.38;;;8.30;99.90;;;;;;4849556;29;20053;-87
2022/01/02 07:19:01;;;;;;;8.07;3.95;;;8.30;99.90;;;;;;4860617;29;20048;-89
2022/01/02 07:21:30;;;;;;;9.18;3.60;;;8.30;99.90;;;;;;4861562;29;20053;-88
2022/01/02 07:23:59;;;;;;;6.88;2.75;;;8.30;99.90;;;;;;4866767;29;20085;-89
2022/01/02 07:26:28;;;;;;;5.90;3.20;;;8.20;99.90;;;;;;4847126;29;20045;-89
2022/01/02 07:28:58;;;;;;;7.93;3.30;;;8.30;99.90;;;;;;4865504;29;20060;-89
2022/01/02 07:31:27;;;;;;;7.45;3.42;;;8.30;99.90;;;;;;4871926;29;20651;-89
2022/01/02 07:33:56;;;;;;;8.80;3.20;;;8.40;99.90;;;;;;4861642;29;20048;-89
2022/01/02 07:36:24;;;;;;;7.38;2.83;;;8.30;99.90;;;;;;4863619;29;20365;-90
2022/01/02 07:38:53;;;;;;;6.97;3.73;;;8.40;99.90;;;;;;4861698;29;20061;-92
2022/01/02 07:41:22;;;;;;;7.93;3.00;;;8.40;99.90;;;;;;4868610;29;20053;-90
2022/01/02 07:43:58;;;;;;;9.50;3.22;;;8.50;99.90;;;;;;4860644;29;20060;-87
2022/01/02 07:46:27;;;;;;;12.10;4.38;;;8.50;99.90;;;;;;4863048;29;20140;-89
2022/01/02 07:48:56;;;;;;;7.03;3.28;;;8.50;99.90;;;;;;4862897;29;20053;-87
2022/01/02 07:51:24;;;;;;;8.20;3.33;;;8.50;99.90;;;;;;4862963;29;20052;-89
2022/01/02 07:53:53;;;;;;;8.43;3.83;;;8.50;99.90;;;;;;4861507;29;20056;-87
2022/01/02 07:56:22;;;;;;;8.27;3.15;;;8.50;99.90;;;;;;4847060;29;20108;-87
2022/01/02 07:58:51;;;;;;;11.38;3.05;;;8.40;99.90;;;;;;4857898;29;20048;-89
2022/01/02 08:01:22;;;;;;;9.18;3.75;;;8.50;99.90;;;;;;4861647;29;20496;-89
2022/01/02 08:03:54;;;;;;;11.33;3.73;;;8.40;99.90;;;;;;4844409;29;20044;-87
2022/01/02 08:06:24;;;;;;;7.57;3.28;;;8.50;99.90;;;;;;4846351;29;20041;-91
2022/01/02 08:08:53;;;;;;;8.20;3.63;;;8.50;99.90;;;;;;4848221;29;20056;-87
2022/01/02 08:11:24;;;;;;;9.15;4.35;;;8.50;99.90;;;;;;4844393;29;20080;-90
2022/01/02 08:14:15;;;;;;;8.45;3.72;;;8.50;99.90;;;;;;4868467;29;20508;-89
2022/01/02 08:16:45;;;;;;;7.87;3.17;;;8.40;99.90;;;;;;4860222;29;20104;-89
2022/01/02 08:19:15;;;;;;;6.85;3.17;;;8.40;99.90;;;;;;4865622;29;20061;-89
2022/01/02 08:22:08;;;;;;;8.00;3.95;;;8.40;99.90;;;;;;4865817;29;20053;-85
2022/01/02 08:24:37;;;;;;;6.03;2.97;;;8.30;99.90;;;;;;4854685;29;20441;-88
2022/01/02 08:27:06;;;;;;;9.23;4.28;;;8.40;99.90;;;;;;4865919;29;20056;-87
2022/01/02 08:29:36;;;;;;;7.70;3.60;;;8.50;99.90;;;;;;4869093;29;20449;-89
2022/01/02 08:32:06;;;;;;;7.18;3.40;;;8.50;99.90;;;;;;4875327;29;20045;-90
2022/01/02 08:34:36;;;;;;;7.07;3.58;;;8.60;99.90;;;;;;4865473;29;20049;-85
2022/01/02 08:37:08;;;;;;;7.88;3.10;;;8.70;99.90;;;;;;4867621;29;20064;-87
2022/01/02 08:39:38;;;;;;;8.18;4.05;;;8.70;99.90;;;;;;4868863;29;20102;-85
2022/01/02 08:42:08;;;;;;;9.90;3.80;;;8.60;99.90;;;;;;4868124;29;20076;-87
2022/01/02 08:44:38;;;;;;;8.48;3.35;;;8.60;99.90;;;;;;4853376;29;20128;-88
2022/01/02 08:47:12;;;;;;;9.20;3.58;;;8.60;99.90;;;;;;4869297;29;20045;-85
2022/01/02 08:49:42;;;;;;;12.30;4.60;;;8.80;99.90;;;;;;4868116;29;20520;-87
2022/01/02 08:52:12;;;;;;;12.57;4.05;;;8.80;99.90;;;;;;4872624;29;20240;-90
2022/01/02 08:54:40;;;;;;;10.07;4.13;;;8.80;99.90;;;;;;4869936;29;20053;-90
2022/01/02 08:57:10;;;;;;;11.73;4.25;;;8.80;99.90;;;;;;4851823;29;20117;-88
2022/01/02 08:59:39;;;;;;;10.45;4.53;;;8.90;99.90;;;;;;4876113;29;20517;-86
2022/01/02 09:02:09;;;;;;;10.10;4.50;;;9.00;99.90;;;;;;4875540;29;20053;-88
2022/01/02 09:04:42;;;;;;;9.38;4.60;;;9.00;99.90;;;;;;4871011;29;20093;-87
2022/01/02 09:07:13;;;;;;;10.97;4.93;;;9.00;99.90;;;;;;4856721;29;20127;-89
2022/01/02 09:09:44;;;;;;;7.28;4.22;;;9.00;99.90;;;;;;4877631;29;20037;-93
2022/01/02 09:12:19;;;;;;;7.82;4.15;;;9.00;99.90;;;;;;4879300;29;20101;-86
2022/01/02 09:14:50;;;;;;;8.65;4.55;;;9.10;99.90;;;;;;4873586;29;20140;-87
2022/01/02 09:17:22;;;;;;;7.60;4.45;;;9.10;99.90;;;;;;4858531;29;20068;-86
2022/01/02 09:19:53;;;;;;;8.93;4.57;;;9.10;99.90;;;;;;4869412;29;20357;-87
2022/01/02 09:22:22;;;;;;;12.32;4.80;;;9.10;99.90;;;;;;4867184;29;20463;-90
2022/01/02 09:24:54;;;;;;;12.40;5.63;;;9.10;99.90;;;;;;4869234;29;20045;-90
2022/01/02 09:27:23;;;;;;;10.43;5.38;;;9.00;99.90;;;;;;4863843;29;20050;-85
2022/01/02 09:29:52;;;;;;;10.35;4.88;;;9.10;99.90;;;;;;4866383;29;20059;-86
2022/01/02 09:32:20;;;;;;;11.17;4.53;;;9.10;99.90;;;;;;4865235;29;20056;-86
2022/01/02 09:34:52;;;;;;;10.23;5.20;;;9.20;99.90;;;;;;4849288;29;20057;-86
2022/01/02 09:37:21;;;;;;;10.85;5.13;;;9.20;99.90;;;;;;4858907;29;20041;-86
2022/01/02 09:39:50;;;;;;;11.80;4.63;;;9.30;99.90;;;;;;4866466;29;20139;-86
2022/01/02 09:42:19;;;;;;;10.18;5.20;;;9.40;99.90;;;;;;4864075;29;20499;-86
2022/01/02 09:44:47;;;;;;;8.83;4.30;;;9.30;99.90;;;;;;4844537;29;20060;-87
2022/01/02 09:47:21;;;;;;;9.82;4.95;;;9.40;99.90;;;;;;4862639;29;20064;-86
2022/01/02 09:49:52;;;;;;;10.00;4.50;;;9.50;99.90;;;;;;4877234;29;20045;-88
2022/01/02 09:52:21;;;;;;;11.45;4.97;;;9.60;99.90;;;;;;4883484;29;20057;-89
2022/01/02 09:54:50;;;;;;;11.13;5.10;;;9.70;99.90;;;;;;4863914;29;20555;-87
2022/01/02 09:57:19;;;;;;;9.57;4.57;;;9.90;99.90;;;;;;4865258;29;20127;-87
2022/01/02 09:59:48;;;;;;;12.73;4.60;;;10.00;99.90;;;;;;4864146;29;20087;-86
2022/01/02 10:02:17;;;;;;;8.13;4.18;;;10.10;99.90;;;;;;4872478;29;20056;-89
2022/01/02 10:04:48;;;;;;;11.38;4.75;;;10.20;99.90;;;;;;4863409;29;20085;-88
2022/01/02 10:07:30;;;;;;;8.25;4.03;;;10.40;99.90;;;;;;4851936;29;20060;-88
2022/01/02 10:13:01;;;;;;;9.15;3.85;;;10.60;99.90;;;;;;4862170;29;20046;-86
2022/01/02 10:15:32;;;;;;;9.80;3.78;;;10.70;99.90;;;;;;4858297;29;20049;-86
2022/01/02 10:18:04;;;;;;;8.50;3.40;;;10.70;99.90;;;;;;4863731;29;20097;-85
2022/01/02 10:20:35;;;;;;;7.28;3.47;;;10.80;99.90;;;;;;4843566;29;20056;-89
2022/01/02 10:26:09;;;;;;;11.68;4.03;;;10.80;99.90;;;;;;4862759;29;20102;-89
2022/01/02 10:28:39;;;;;;;14.25;4.82;;;10.90;99.90;;;;;;4860563;29;20062;-87
2022/01/02 10:31:13;;;;;;;8.88;3.60;;;11.10;99.90;;;;;;4861759;29;20064;-87
2022/01/02 10:33:51;;;;;;;8.93;3.78;;;11.10;99.90;;;;;;4850389;29;20063;-87
2022/01/02 10:36:28;;;;;;;8.37;3.70;;;11.20;99.90;;;;;;4881266;29;20056;-90
2022/01/02 10:39:05;;;;;;;8.05;3.47;;;11.30;99.90;;;;;;4859725;29;20079;-87
2022/01/02 10:41:35;;;;;;;9.00;4.20;;;11.30;99.90;;;;;;4847142;29;20103;-91
2022/01/02 10:44:23;;;;;;;9.88;3.60;;;11.30;99.90;;;;;;4866456;29;20081;-86
2022/01/02 10:47:15;;;;;;;9.70;3.80;;;11.40;99.90;;;;;;4846052;29;20050;-87
2022/01/02 10:49:55;;;;;;;7.50;3.50;;;11.50;99.90;;;;;;4856084;29;20075;-90
2022/01/02 10:52:27;;;;;;;9.82;4.03;;;11.50;99.90;;;;;;4849127;29;20469;-90
2022/01/02 10:54:59;;;;;;;6.32;3.17;;;11.50;99.90;;;;;;4863696;29;20124;-87
2022/01/02 10:57:29;;;;;;;9.13;3.95;;;11.60;99.90;;;;;;4845027;29;20065;-87
2022/01/02 11:00:00;;;;;;;8.43;3.70;;;11.60;99.90;;;;;;4862393;29;20056;-90
2022/01/02 11:02:29;;;;;;;7.57;3.63;;;11.70;99.90;;;;;;4842364;29;20053;-91
2022/01/02 11:05:01;;;;;;;10.45;4.93;;;11.70;99.90;;;;;;4854442;29;20061;-91
2022/01/02 11:07:41;;;;;;;10.77;4.32;;;11.70;99.90;;;;;;4855748;29;20058;-92
2022/01/02 11:10:12;;;;;;;9.80;4.13;;;11.80;99.90;;;;;;4880728;29;20088;-91
2022/01/02 11:12:44;;;;;;;11.77;4.25;;;11.80;99.90;;;;;;4850273;29;20122;-91
2022/01/02 11:15:15;;;;;;;8.33;3.57;;;11.80;99.90;;;;;;4851841;29;20450;-92
2022/01/02 11:17:44;;;;;;;7.78;3.67;;;11.80;99.90;;;;;;4850789;29;20105;-94
2022/01/02 11:20:15;;;;;;;9.10;3.70;;;11.80;99.90;;;;;;4851453;29;20049;-93
2022/01/02 11:22:54;;;;;;;8.50;3.90;;;11.80;99.90;;;;;;4862745;29;20053;-94
2022/01/02 11:25:32;;;;;;;11.10;4.45;;;11.90;99.90;;;;;;4867561;29;20069;-94
2022/01/02 11:28:05;;;;;;;8.73;3.33;;;11.90;99.90;;;;;;4860359;29;20097;-94
2022/01/02 11:30:38;;;;;;;8.38;3.90;;;11.90;99.90;;;;;;4868202;29;20061;-88
2022/01/02 11:33:10;;;;;;;8.30;3.75;;;11.90;99.90;;;;;;4846569;29;20041;-89
2022/01/02 11:35:40;;;;;;;8.80;3.80;;;11.90;99.90;;;;;;4846955;29;20045;-89
2022/01/02 11:38:44;;;;;;;8.88;4.32;;;12.00;99.90;;;;;;4861872;29;20152;-86
2022/01/02 11:44:44;;;;;;;8.30;3.72;;;12.00;99.90;;;;;;4842031;29;20389;-93
2022/01/02 11:47:13;;;;;;;7.00;3.00;;;12.00;99.90;;;;;;4848612;29;20053;-92
2022/01/02 11:49:44;;;;;;;8.07;3.22;;;11.90;99.90;;;;;;4844890;29;20073;-93
2022/01/02 11:52:25;;;;;;;10.70;3.95;;;11.90;99.90;;;;;;4845717;29;20113;-91
2022/01/02 11:54:57;;;;;;;8.23;3.77;;;11.90;99.90;;;;;;4836008;29;20154;-85
2022/01/02 12:00:48;;;;;;;7.95;2.75;;;12.00;99.90;;;;;;4857130;29;20049;-89
2022/01/02 12:04:01;;;;;;;9.00;3.55;;;12.00;99.90;;;;;;4861838;29;20057;-92
2022/01/02 12:06:37;;;;;;;8.02;3.53;;;11.90;99.90;;;;;;4849004;29;20100;-89
2022/01/02 12:09:27;;;;;;;7.80;3.50;;;11.90;99.90;;;;;;4874615;29;20056;-90
2022/01/02 12:12:00;;;;;;;8.18;3.60;;;11.90;99.90;;;;;;4858989;29;20110;-92
2022/01/02 12:14:31;;;;;;;10.73;3.40;;;11.90;99.90;;;;;;4848571;29;20100;-93
2022/01/02 12:17:13;;;;;;;9.02;3.70;;;11.90;99.90;;;;;;4844571;29;20509;-92
2022/01/02 12:20:00;;;;;;;7.15;3.50;;;11.80;99.90;;;;;;4862724;29;20049;-92
2022/01/02 12:22:46;;;;;;;8.50;3.40;;;11.80;99.90;;;;;;4852581;29;20125;-96
2022/01/02 12:25:19;;;;;;;8.25;3.70;;;11.80;99.90;;;;;;4847992;29;20061;-91
2022/01/02 12:27:58;;;;;;;9.10;4.00;;;11.80;99.90;;;;;;4862984;29;20045;-90
2022/01/02 12:31:04;;;;;;;7.68;3.30;;;11.80;99.90;;;;;;4859191;29;20050;-89
2022/01/02 12:33:39;;;;;;;7.70;3.35;;;11.80;99.90;;;;;;4845793;29;20053;-87
2022/01/02 12:39:15;;;;;;;8.50;4.28;;;11.80;99.90;;;;;;4845964;29;20080;-96
2022/01/02 12:41:45;;;;;;;8.63;3.38;;;11.80;99.90;;;;;;4845408;29;20049;-92
2022/01/02 12:44:15;;;;;;;7.85;3.53;;;11.80;99.90;;;;;;4847909;29;20053;-95
2022/01/02 12:46:48;;;;;;;10.13;3.92;;;11.90;99.90;;;;;;4851103;29;20053;-91
2022/01/02 12:49:21;;;;;;;9.63;3.93;;;11.80;99.90;;;;;;4841645;29;20045;-90
2022/01/02 12:52:16;;;;;;;5.38;3.20;;;11.90;99.90;;;;;;4863185;29;20077;-95
2022/01/02 12:54:54;;;;;;;8.18;3.47;;;11.80;99.90;;;;;;4849753;29;20058;-91
2022/01/02 12:57:23;;;;;;;8.15;3.72;;;11.80;99.90;;;;;;4845059;29;20497;-89
2022/01/02 12:59:57;;;;;;;8.40;4.03;;;11.80;99.90;;;;;;4853005;29;20049;-92
2022/01/02 13:02:28;;;;;;;7.30;3.50;;;11.80;99.90;;;;;;4867264;29;20061;-88
2022/01/02 13:05:05;;;;;;;10.55;4.10;;;11.80;99.90;;;;;;4872515;29;20109;-88
2022/01/02 13:07:36;;;;;;;7.70;3.45;;;11.80;99.90;;;;;;4855129;29;20140;-89
2022/01/02 13:10:08;;;;;;;8.15;3.88;;;11.80;99.90;;;;;;4847255;29;20057;-88
2022/01/02 13:12:38;;;;;;;9.70;4.13;;;11.80;99.90;;;;;;4844269;29;20054;-88
2022/01/02 13:15:09;;;;;;;11.30;4.27;;;11.80;99.90;;;;;;4848676;29;20410;-88
2022/01/02 13:17:39;;;;;;;12.02;4.43;;;11.80;99.90;;;;;;4840279;29;20049;-90
2022/01/02 13:20:11;;;;;;;10.60;3.97;;;11.80;99.90;;;;;;4858976;29;20467;-89
2022/01/02 13:22:48;;;;;;;8.73;3.28;;;11.80;99.90;;;;;;4843520;29;20053;-86
2022/01/02 13:25:35;;;;;;;8.55;3.97;;;11.80;99.90;;;;;;4863549;29;20049;-87
2022/01/02 13:28:07;;;;;;;9.67;3.60;;;11.70;99.90;;;;;;4853238;29;20061;-87
2022/01/02 13:30:38;;;;;;;12.15;4.25;;;11.80;99.90;;;;;;4856010;29;20049;-88
2022/01/02 13:33:17;;;;;;;8.20;3.50;;;11.90;99.90;;;;;;4838744;29;20050;-86
2022/01/02 13:36:17;;;;;;;7.47;3.08;;;11.90;99.90;;;;;;4841593;29;20054;-90
2022/01/02 13:38:51;;;;;;;10.05;3.47;;;11.90;99.90;;;;;;4837708;29;20493;-86
2022/01/02 13:41:20;;;;;;;6.50;3.27;;;11.90;99.90;;;;;;4853941;29;20463;-89
2022/01/02 13:43:49;;;;;;;8.85;3.67;;;11.90;99.90;;;;;;4838990;29;20535;-87
2022/01/02 13:46:17;;;;;;;7.60;3.17;;;11.90;99.90;;;;;;4873213;29;20137;-88
2022/01/02 13:48:47;;;;;;;8.00;3.60;;;12.00;99.90;;;;;;4856373;29;20081;-86
2022/01/02 13:51:20;;;;;;;9.07;3.38;;;12.10;99.90;;;;;;4859912;29;20053;-88